sensor_id;sensor_type;location;lat;lon;timestamp;P1;durP1;ratioP1;P2;durP2;ratioP2
34491;SDS011;20737;49.908;8.126;2023-04-21T00:01:25;28.25;;;15.25;;
34491;SDS011;20737;49.908;8.126;2023-04-21T00:03:53;30.58;;;17.10;;
34491;SDS011;20737;49.908;8.126;2023-04-21T00:06:20;33.13;;;16.45;;
34491;SDS011;20737;49.908;8.126;2023-04-21T00:08:47;32.08;;;16.15;;
34491;SDS011;20737;49.908;8.126;2023-04-21T00:11:14;30.95;;;17.02;;
34491;SDS011;20737;49.908;8.126;2023-04-21T00:13:41;29.17;;;16.20;;
34491;SDS011;20737;49.908;8.126;2023-04-21T00:16:09;30.13;;;15.30;;
34491;SDS011;20737;49.908;8.126;2023-04-21T00:18:36;31.23;;;16.58;;
34491;SDS011;20737;49.908;8.126;2023-04-21T00:21:02;31.52;;;16.35;;
34491;SDS011;20737;49.908;8.126;2023-04-21T00:23:30;27.35;;;14.90;;
34491;SDS011;20737;49.908;8.126;2023-04-21T00:25:56;28.52;;;14.88;;
34491;SDS011;20737;49.908;8.126;2023-04-21T00:28:26;30.77;;;15.02;;
34491;SDS011;20737;49.908;8.126;2023-04-21T00:30:53;29.98;;;14.93;;
34491;SDS011;20737;49.908;8.126;2023-04-21T00:33:21;31.90;;;16.55;;
34491;SDS011;20737;49.908;8.126;2023-04-21T00:35:48;28.52;;;16.08;;
34491;SDS011;20737;49.908;8.126;2023-04-21T00:38:14;28.85;;;15.82;;
34491;SDS011;20737;49.908;8.126;2023-04-21T00:40:41;28.83;;;15.95;;
34491;SDS011;20737;49.908;8.126;2023-04-21T00:43:08;32.63;;;16.77;;
34491;SDS011;20737;49.908;8.126;2023-04-21T00:45:35;36.00;;;17.70;;
34491;SDS011;20737;49.908;8.126;2023-04-21T00:48:01;33.00;;;17.87;;
34491;SDS011;20737;49.908;8.126;2023-04-21T00:50:30;30.97;;;15.80;;
34491;SDS011;20737;49.908;8.126;2023-04-21T00:52:58;31.35;;;15.10;;
34491;SDS011;20737;49.908;8.126;2023-04-21T00:55:25;27.83;;;15.67;;
34491;SDS011;20737;49.908;8.126;2023-04-21T00:57:53;30.87;;;15.63;;
34491;SDS011;20737;49.908;8.126;2023-04-21T01:00:21;31.02;;;15.30;;
34491;SDS011;20737;49.908;8.126;2023-04-21T01:02:48;28.67;;;14.47;;
34491;SDS011;20737;49.908;8.126;2023-04-21T01:05:15;29.03;;;14.93;;
34491;SDS011;20737;49.908;8.126;2023-04-21T01:07:43;27.40;;;14.47;;
34491;SDS011;20737;49.908;8.126;2023-04-21T01:10:10;31.47;;;15.17;;
34491;SDS011;20737;49.908;8.126;2023-04-21T01:12:41;29.67;;;15.70;;
34491;SDS011;20737;49.908;8.126;2023-04-21T01:15:09;27.07;;;14.17;;
34491;SDS011;20737;49.908;8.126;2023-04-21T01:17:36;28.17;;;13.70;;
34491;SDS011;20737;49.908;8.126;2023-04-21T01:20:05;28.37;;;14.17;;
34491;SDS011;20737;49.908;8.126;2023-04-21T01:22:37;26.90;;;13.60;;
34491;SDS011;20737;49.908;8.126;2023-04-21T01:25:06;25.63;;;12.73;;
34491;SDS011;20737;49.908;8.126;2023-04-21T01:27:36;26.87;;;13.20;;
34491;SDS011;20737;49.908;8.126;2023-04-21T01:30:03;27.07;;;13.10;;
34491;SDS011;20737;49.908;8.126;2023-04-21T01:32:31;27.20;;;13.10;;
34491;SDS011;20737;49.908;8.126;2023-04-21T01:34:58;28.17;;;13.10;;
34491;SDS011;20737;49.908;8.126;2023-04-21T01:37:26;26.90;;;13.90;;
34491;SDS011;20737;49.908;8.126;2023-04-21T01:39:55;26.47;;;12.40;;
34491;SDS011;20737;49.908;8.126;2023-04-21T01:42:24;27.30;;;13.20;;
34491;SDS011;20737;49.908;8.126;2023-04-21T01:44:53;30.93;;;13.43;;
34491;SDS011;20737;49.908;8.126;2023-04-21T01:47:20;30.23;;;13.17;;
34491;SDS011;20737;49.908;8.126;2023-04-21T01:49:48;26.87;;;12.47;;
34491;SDS011;20737;49.908;8.126;2023-04-21T01:52:14;29.20;;;13.80;;
34491;SDS011;20737;49.908;8.126;2023-04-21T01:54:41;37.47;;;15.13;;
34491;SDS011;20737;49.908;8.126;2023-04-21T01:57:13;32.17;;;14.03;;
34491;SDS011;20737;49.908;8.126;2023-04-21T01:59:39;24.87;;;11.87;;
34491;SDS011;20737;49.908;8.126;2023-04-21T02:02:06;28.57;;;13.43;;
34491;SDS011;20737;49.908;8.126;2023-04-21T02:04:34;26.20;;;12.20;;
34491;SDS011;20737;49.908;8.126;2023-04-21T02:07:01;29.73;;;12.60;;
34491;SDS011;20737;49.908;8.126;2023-04-21T02:09:28;33.33;;;12.90;;
34491;SDS011;20737;49.908;8.126;2023-04-21T02:11:55;44.47;;;14.23;;
34491;SDS011;20737;49.908;8.126;2023-04-21T02:14:26;30.13;;;14.67;;
34491;SDS011;20737;49.908;8.126;2023-04-21T02:16:53;29.80;;;13.43;;
34491;SDS011;20737;49.908;8.126;2023-04-21T02:19:22;35.00;;;14.97;;
34491;SDS011;20737;49.908;8.126;2023-04-21T02:21:48;29.10;;;13.33;;
34491;SDS011;20737;49.908;8.126;2023-04-21T02:24:15;24.53;;;11.73;;
34491;SDS011;20737;49.908;8.126;2023-04-21T02:26:43;26.10;;;12.63;;
34491;SDS011;20737;49.908;8.126;2023-04-21T02:29:10;25.90;;;13.63;;
34491;SDS011;20737;49.908;8.126;2023-04-21T02:31:38;42.97;;;17.07;;
34491;SDS011;20737;49.908;8.126;2023-04-21T02:34:05;41.07;;;17.67;;
34491;SDS011;20737;49.908;8.126;2023-04-21T02:40:04;32.90;;;14.38;;
34491;SDS011;20737;49.908;8.126;2023-04-21T02:42:31;37.93;;;13.33;;
34491;SDS011;20737;49.908;8.126;2023-04-21T02:44:58;34.53;;;14.00;;
34491;SDS011;20737;49.908;8.126;2023-04-21T02:47:26;34.93;;;13.73;;
34491;SDS011;20737;49.908;8.126;2023-04-21T02:49:55;32.33;;;13.67;;
34491;SDS011;20737;49.908;8.126;2023-04-21T02:52:22;34.43;;;15.23;;
34491;SDS011;20737;49.908;8.126;2023-04-21T02:54:49;42.40;;;17.23;;
34491;SDS011;20737;49.908;8.126;2023-04-21T02:57:15;34.33;;;15.97;;
34491;SDS011;20737;49.908;8.126;2023-04-21T02:59:42;40.93;;;18.47;;
34491;SDS011;20737;49.908;8.126;2023-04-21T03:02:09;39.80;;;18.43;;
34491;SDS011;20737;49.908;8.126;2023-04-21T03:04:39;73.70;;;18.33;;
34491;SDS011;20737;49.908;8.126;2023-04-21T03:07:10;65.60;;;19.73;;
34491;SDS011;20737;49.908;8.126;2023-04-21T03:09:37;41.63;;;15.70;;
34491;SDS011;20737;49.908;8.126;2023-04-21T03:12:04;52.13;;;17.77;;
34491;SDS011;20737;49.908;8.126;2023-04-21T03:14:31;42.30;;;15.50;;
34491;SDS011;20737;49.908;8.126;2023-04-21T03:16:57;37.03;;;14.80;;
34491;SDS011;20737;49.908;8.126;2023-04-21T03:19:24;51.90;;;17.83;;
34491;SDS011;20737;49.908;8.126;2023-04-21T03:21:52;37.03;;;15.80;;
34491;SDS011;20737;49.908;8.126;2023-04-21T03:24:19;42.20;;;16.70;;
34491;SDS011;20737;49.908;8.126;2023-04-21T03:26:47;29.13;;;13.90;;
34491;SDS011;20737;49.908;8.126;2023-04-21T03:29:13;29.07;;;12.87;;
34491;SDS011;20737;49.908;8.126;2023-04-21T03:31:40;25.00;;;13.10;;
34491;SDS011;20737;49.908;8.126;2023-04-21T03:34:07;23.93;;;11.97;;
34491;SDS011;20737;49.908;8.126;2023-04-21T03:36:33;27.43;;;12.73;;
34491;SDS011;20737;49.908;8.126;2023-04-21T03:39:01;30.97;;;14.13;;
34491;SDS011;20737;49.908;8.126;2023-04-21T03:41:28;31.13;;;14.43;;
34491;SDS011;20737;49.908;8.126;2023-04-21T03:43:55;29.93;;;13.93;;
34491;SDS011;20737;49.908;8.126;2023-04-21T03:46:22;33.53;;;14.93;;
34491;SDS011;20737;49.908;8.126;2023-04-21T03:48:49;31.13;;;13.93;;
34491;SDS011;20737;49.908;8.126;2023-04-21T03:51:16;32.07;;;15.03;;
34491;SDS011;20737;49.908;8.126;2023-04-21T03:53:43;29.80;;;14.00;;
34491;SDS011;20737;49.908;8.126;2023-04-21T03:56:11;29.27;;;14.10;;
34491;SDS011;20737;49.908;8.126;2023-04-21T03:58:37;30.23;;;14.50;;
34491;SDS011;20737;49.908;8.126;2023-04-21T04:01:04;31.33;;;13.97;;
34491;SDS011;20737;49.908;8.126;2023-04-21T04:03:31;32.33;;;15.30;;
34491;SDS011;20737;49.908;8.126;2023-04-21T04:05:58;33.87;;;15.23;;
34491;SDS011;20737;49.908;8.126;2023-04-21T04:08:29;34.60;;;15.97;;
34491;SDS011;20737;49.908;8.126;2023-04-21T04:10:56;38.00;;;16.87;;
34491;SDS011;20737;49.908;8.126;2023-04-21T04:13:24;36.00;;;17.27;;
34491;SDS011;20737;49.908;8.126;2023-04-21T04:15:51;32.23;;;16.10;;
34491;SDS011;20737;49.908;8.126;2023-04-21T04:18:19;35.53;;;16.20;;
34491;SDS011;20737;49.908;8.126;2023-04-21T04:20:45;39.53;;;18.20;;
34491;SDS011;20737;49.908;8.126;2023-04-21T04:23:12;46.37;;;18.63;;
34491;SDS011;20737;49.908;8.126;2023-04-21T04:25:39;35.43;;;16.13;;
34491;SDS011;20737;49.908;8.126;2023-04-21T04:28:06;32.90;;;15.47;;
34491;SDS011;20737;49.908;8.126;2023-04-21T04:30:34;35.07;;;16.10;;
34491;SDS011;20737;49.908;8.126;2023-04-21T04:33:01;41.73;;;17.13;;
34491;SDS011;20737;49.908;8.126;2023-04-21T04:35:29;43.40;;;17.80;;
34491;SDS011;20737;49.908;8.126;2023-04-21T04:37:55;46.03;;;18.57;;
34491;SDS011;20737;49.908;8.126;2023-04-21T04:40:23;42.60;;;18.17;;
34491;SDS011;20737;49.908;8.126;2023-04-21T04:42:50;37.57;;;16.70;;
34491;SDS011;20737;49.908;8.126;2023-04-21T04:45:16;46.53;;;17.23;;
34491;SDS011;20737;49.908;8.126;2023-04-21T04:47:47;37.03;;;17.27;;
34491;SDS011;20737;49.908;8.126;2023-04-21T04:50:14;38.93;;;16.57;;
34491;SDS011;20737;49.908;8.126;2023-04-21T04:52:41;38.03;;;15.73;;
34491;SDS011;20737;49.908;8.126;2023-04-21T04:55:10;36.10;;;18.13;;
34491;SDS011;20737;49.908;8.126;2023-04-21T04:57:38;36.10;;;16.97;;
34491;SDS011;20737;49.908;8.126;2023-04-21T05:00:05;38.15;;;17.77;;
34491;SDS011;20737;49.908;8.126;2023-04-21T05:02:35;41.00;;;18.50;;
34491;SDS011;20737;49.908;8.126;2023-04-21T05:05:04;46.07;;;18.80;;
34491;SDS011;20737;49.908;8.126;2023-04-21T05:07:31;50.53;;;18.60;;
34491;SDS011;20737;49.908;8.126;2023-04-21T05:09:58;46.60;;;18.80;;
34491;SDS011;20737;49.908;8.126;2023-04-21T05:12:25;50.75;;;21.17;;
34491;SDS011;20737;49.908;8.126;2023-04-21T05:14:51;51.00;;;19.83;;
34491;SDS011;20737;49.908;8.126;2023-04-21T05:17:18;42.95;;;19.30;;
34491;SDS011;20737;49.908;8.126;2023-04-21T05:19:45;47.42;;;18.92;;
34491;SDS011;20737;49.908;8.126;2023-04-21T05:22:13;47.75;;;20.45;;
34491;SDS011;20737;49.908;8.126;2023-04-21T05:24:40;49.20;;;19.90;;
34491;SDS011;20737;49.908;8.126;2023-04-21T05:27:08;44.13;;;20.20;;
34491;SDS011;20737;49.908;8.126;2023-04-21T05:29:34;46.75;;;21.17;;
34491;SDS011;20737;49.908;8.126;2023-04-21T05:32:01;46.55;;;21.02;;
34491;SDS011;20737;49.908;8.126;2023-04-21T05:34:28;48.65;;;20.02;;
34491;SDS011;20737;49.908;8.126;2023-04-21T05:36:54;51.15;;;21.00;;
34491;SDS011;20737;49.908;8.126;2023-04-21T05:39:23;53.38;;;22.55;;
34491;SDS011;20737;49.908;8.126;2023-04-21T05:41:49;53.58;;;21.02;;
34491;SDS011;20737;49.908;8.126;2023-04-21T05:44:16;50.58;;;22.52;;
34491;SDS011;20737;49.908;8.126;2023-04-21T05:46:43;51.83;;;20.73;;
34491;SDS011;20737;49.908;8.126;2023-04-21T05:49:09;53.17;;;22.58;;
34491;SDS011;20737;49.908;8.126;2023-04-21T05:51:36;52.20;;;22.42;;
34491;SDS011;20737;49.908;8.126;2023-04-21T05:54:03;48.55;;;21.95;;
34491;SDS011;20737;49.908;8.126;2023-04-21T05:56:31;51.92;;;22.42;;
34491;SDS011;20737;49.908;8.126;2023-04-21T05:58:58;48.40;;;20.85;;
34491;SDS011;20737;49.908;8.126;2023-04-21T06:01:25;48.72;;;20.23;;
34491;SDS011;20737;49.908;8.126;2023-04-21T06:03:52;53.30;;;21.83;;
34491;SDS011;20737;49.908;8.126;2023-04-21T06:06:18;54.85;;;21.10;;
34491;SDS011;20737;49.908;8.126;2023-04-21T06:08:45;50.35;;;22.40;;
34491;SDS011;20737;49.908;8.126;2023-04-21T06:11:12;51.80;;;23.05;;
34491;SDS011;20737;49.908;8.126;2023-04-21T06:13:40;47.30;;;20.92;;
34491;SDS011;20737;49.908;8.126;2023-04-21T06:16:06;48.45;;;19.98;;
34491;SDS011;20737;49.908;8.126;2023-04-21T06:18:33;48.47;;;21.00;;
34491;SDS011;20737;49.908;8.126;2023-04-21T06:21:00;44.35;;;20.00;;
34491;SDS011;20737;49.908;8.126;2023-04-21T06:23:27;47.05;;;20.70;;
34491;SDS011;20737;49.908;8.126;2023-04-21T06:25:59;42.17;;;20.25;;
34491;SDS011;20737;49.908;8.126;2023-04-21T06:28:29;44.30;;;18.70;;
34491;SDS011;20737;49.908;8.126;2023-04-21T06:30:57;43.17;;;20.05;;
34491;SDS011;20737;49.908;8.126;2023-04-21T06:33:25;42.80;;;20.38;;
34491;SDS011;20737;49.908;8.126;2023-04-21T06:35:51;44.67;;;19.48;;
34491;SDS011;20737;49.908;8.126;2023-04-21T06:38:18;48.00;;;19.77;;
34491;SDS011;20737;49.908;8.126;2023-04-21T06:40:45;41.50;;;18.77;;
34491;SDS011;20737;49.908;8.126;2023-04-21T06:43:12;50.00;;;19.63;;
34491;SDS011;20737;49.908;8.126;2023-04-21T06:45:45;47.38;;;18.42;;
34491;SDS011;20737;49.908;8.126;2023-04-21T06:48:13;46.08;;;19.75;;
34491;SDS011;20737;49.908;8.126;2023-04-21T06:50:40;42.40;;;19.17;;
34491;SDS011;20737;49.908;8.126;2023-04-21T06:53:08;43.70;;;20.38;;
34491;SDS011;20737;49.908;8.126;2023-04-21T06:55:35;46.95;;;19.52;;
34491;SDS011;20737;49.908;8.126;2023-04-21T06:58:03;41.67;;;19.25;;
34491;SDS011;20737;49.908;8.126;2023-04-21T07:00:30;47.47;;;19.20;;
34491;SDS011;20737;49.908;8.126;2023-04-21T07:02:56;44.10;;;19.00;;
34491;SDS011;20737;49.908;8.126;2023-04-21T07:05:25;38.92;;;18.02;;
34491;SDS011;20737;49.908;8.126;2023-04-21T07:07:51;41.33;;;18.70;;
34491;SDS011;20737;49.908;8.126;2023-04-21T07:10:20;40.08;;;17.25;;
34491;SDS011;20737;49.908;8.126;2023-04-21T07:12:47;40.90;;;17.88;;
34491;SDS011;20737;49.908;8.126;2023-04-21T07:15:14;40.10;;;17.67;;
34491;SDS011;20737;49.908;8.126;2023-04-21T07:17:41;34.17;;;17.08;;
34491;SDS011;20737;49.908;8.126;2023-04-21T07:20:08;35.20;;;17.45;;
34491;SDS011;20737;49.908;8.126;2023-04-21T07:22:36;40.97;;;19.52;;
34491;SDS011;20737;49.908;8.126;2023-04-21T07:25:03;43.50;;;17.95;;
34491;SDS011;20737;49.908;8.126;2023-04-21T07:27:31;36.35;;;17.25;;
34491;SDS011;20737;49.908;8.126;2023-04-21T07:29:58;37.30;;;17.55;;
34491;SDS011;20737;49.908;8.126;2023-04-21T07:32:25;32.03;;;15.80;;
34491;SDS011;20737;49.908;8.126;2023-04-21T07:34:52;33.30;;;17.33;;
34491;SDS011;20737;49.908;8.126;2023-04-21T07:37:18;33.78;;;17.65;;
34491;SDS011;20737;49.908;8.126;2023-04-21T07:39:47;30.98;;;16.40;;
34491;SDS011;20737;49.908;8.126;2023-04-21T07:42:14;34.42;;;17.20;;
34491;SDS011;20737;49.908;8.126;2023-04-21T07:44:41;29.27;;;17.20;;
34491;SDS011;20737;49.908;8.126;2023-04-21T07:47:07;29.48;;;16.60;;
34491;SDS011;20737;49.908;8.126;2023-04-21T07:49:34;30.13;;;16.90;;
34491;SDS011;20737;49.908;8.126;2023-04-21T07:52:01;23.90;;;14.45;;
34491;SDS011;20737;49.908;8.126;2023-04-21T07:54:28;26.70;;;16.40;;
34491;SDS011;20737;49.908;8.126;2023-04-21T07:56:56;27.85;;;16.48;;
34491;SDS011;20737;49.908;8.126;2023-04-21T07:59:22;27.98;;;15.95;;
34491;SDS011;20737;49.908;8.126;2023-04-21T08:01:49;28.60;;;17.25;;
34491;SDS011;20737;49.908;8.126;2023-04-21T08:04:16;27.42;;;15.82;;
34491;SDS011;20737;49.908;8.126;2023-04-21T08:06:43;26.25;;;15.52;;
34491;SDS011;20737;49.908;8.126;2023-04-21T08:09:10;23.20;;;14.77;;
34491;SDS011;20737;49.908;8.126;2023-04-21T08:11:36;23.08;;;14.95;;
34491;SDS011;20737;49.908;8.126;2023-04-21T08:14:04;24.42;;;16.13;;
34491;SDS011;20737;49.908;8.126;2023-04-21T08:16:33;27.17;;;15.70;;
34491;SDS011;20737;49.908;8.126;2023-04-21T08:19:00;22.65;;;16.42;;
34491;SDS011;20737;49.908;8.126;2023-04-21T08:21:27;24.15;;;16.25;;
34491;SDS011;20737;49.908;8.126;2023-04-21T08:23:54;21.50;;;15.85;;
34491;SDS011;20737;49.908;8.126;2023-04-21T08:26:21;22.52;;;16.30;;
34491;SDS011;20737;49.908;8.126;2023-04-21T08:28:49;20.67;;;15.50;;
34491;SDS011;20737;49.908;8.126;2023-04-21T08:31:18;21.77;;;16.17;;
34491;SDS011;20737;49.908;8.126;2023-04-21T08:33:45;20.58;;;15.13;;
34491;SDS011;20737;49.908;8.126;2023-04-21T08:36:11;21.75;;;15.55;;
34491;SDS011;20737;49.908;8.126;2023-04-21T08:38:39;19.02;;;14.73;;
34491;SDS011;20737;49.908;8.126;2023-04-21T08:41:07;15.75;;;12.98;;
34491;SDS011;20737;49.908;8.126;2023-04-21T08:43:34;20.50;;;15.75;;
34491;SDS011;20737;49.908;8.126;2023-04-21T08:46:01;19.33;;;15.23;;
34491;SDS011;20737;49.908;8.126;2023-04-21T08:48:32;20.40;;;15.85;;
34491;SDS011;20737;49.908;8.126;2023-04-21T08:51:01;16.80;;;13.43;;
34491;SDS011;20737;49.908;8.126;2023-04-21T08:53:28;14.48;;;12.50;;
34491;SDS011;20737;49.908;8.126;2023-04-21T08:55:55;19.23;;;14.80;;
34491;SDS011;20737;49.908;8.126;2023-04-21T08:58:22;19.55;;;13.50;;
34491;SDS011;20737;49.908;8.126;2023-04-21T09:00:48;17.65;;;14.15;;
34491;SDS011;20737;49.908;8.126;2023-04-21T09:03:20;20.05;;;15.32;;
34491;SDS011;20737;49.908;8.126;2023-04-21T09:05:56;18.38;;;14.35;;
34491;SDS011;20737;49.908;8.126;2023-04-21T09:08:24;15.00;;;13.35;;
34491;SDS011;20737;49.908;8.126;2023-04-21T09:10:53;14.98;;;13.38;;
34491;SDS011;20737;49.908;8.126;2023-04-21T09:13:19;11.00;;;9.88;;
34491;SDS011;20737;49.908;8.126;2023-04-21T09:15:53;14.45;;;12.95;;
34491;SDS011;20737;49.908;8.126;2023-04-21T09:18:20;13.65;;;11.13;;
34491;SDS011;20737;49.908;8.126;2023-04-21T09:20:49;13.52;;;11.10;;
34491;SDS011;20737;49.908;8.126;2023-04-21T09:23:19;10.30;;;9.20;;
34491;SDS011;20737;49.908;8.126;2023-04-21T09:25:46;11.00;;;9.95;;
34491;SDS011;20737;49.908;8.126;2023-04-21T09:28:13;15.15;;;12.80;;
34491;SDS011;20737;49.908;8.126;2023-04-21T09:30:40;15.70;;;14.05;;
34491;SDS011;20737;49.908;8.126;2023-04-21T09:33:14;13.05;;;11.75;;
34491;SDS011;20737;49.908;8.126;2023-04-21T09:35:41;12.90;;;11.60;;
34491;SDS011;20737;49.908;8.126;2023-04-21T09:38:09;11.82;;;10.52;;
34491;SDS011;20737;49.908;8.126;2023-04-21T09:40:38;11.18;;;10.07;;
34491;SDS011;20737;49.908;8.126;2023-04-21T09:43:07;11.70;;;8.60;;
34491;SDS011;20737;49.908;8.126;2023-04-21T09:45:35;10.25;;;9.15;;
34491;SDS011;20737;49.908;8.126;2023-04-21T09:48:03;12.90;;;11.32;;
34491;SDS011;20737;49.908;8.126;2023-04-21T09:50:33;12.45;;;10.40;;
34491;SDS011;20737;49.908;8.126;2023-04-21T09:53:00;11.85;;;10.57;;
34491;SDS011;20737;49.908;8.126;2023-04-21T09:55:32;12.52;;;11.18;;
34491;SDS011;20737;49.908;8.126;2023-04-21T09:58:01;12.63;;;11.32;;
34491;SDS011;20737;49.908;8.126;2023-04-21T10:00:33;14.50;;;12.38;;
34491;SDS011;20737;49.908;8.126;2023-04-21T10:03:03;15.45;;;12.65;;
34491;SDS011;20737;49.908;8.126;2023-04-21T10:05:34;14.35;;;12.77;;
34491;SDS011;20737;49.908;8.126;2023-04-21T10:08:01;12.52;;;10.88;;
34491;SDS011;20737;49.908;8.126;2023-04-21T10:10:29;12.73;;;11.40;;
34491;SDS011;20737;49.908;8.126;2023-04-21T10:12:57;14.18;;;12.23;;
34491;SDS011;20737;49.908;8.126;2023-04-21T10:15:29;14.55;;;13.02;;
34491;SDS011;20737;49.908;8.126;2023-04-21T10:18:12;15.25;;;13.75;;
34491;SDS011;20737;49.908;8.126;2023-04-21T10:20:51;14.52;;;12.88;;
34491;SDS011;20737;49.908;8.126;2023-04-21T10:23:25;14.18;;;12.65;;
34491;SDS011;20737;49.908;8.126;2023-04-21T10:25:52;14.80;;;13.30;;
34491;SDS011;20737;49.908;8.126;2023-04-21T10:28:19;14.40;;;12.75;;
34491;SDS011;20737;49.908;8.126;2023-04-21T10:31:16;14.10;;;12.48;;
34491;SDS011;20737;49.908;8.126;2023-04-21T10:34:15;12.95;;;11.55;;
34491;SDS011;20737;49.908;8.126;2023-04-21T10:39:43;14.77;;;12.68;;
34491;SDS011;20737;49.908;8.126;2023-04-21T10:42:25;12.98;;;11.57;;
34491;SDS011;20737;49.908;8.126;2023-04-21T10:45:05;15.02;;;13.50;;
34491;SDS011;20737;49.908;8.126;2023-04-21T10:47:41;14.68;;;13.18;;
34491;SDS011;20737;49.908;8.126;2023-04-21T10:50:17;14.55;;;12.48;;
34491;SDS011;20737;49.908;8.126;2023-04-21T10:52:46;13.73;;;11.77;;
34491;SDS011;20737;49.908;8.126;2023-04-21T10:55:18;13.73;;;12.32;;
34491;SDS011;20737;49.908;8.126;2023-04-21T10:57:46;15.05;;;12.60;;
34491;SDS011;20737;49.908;8.126;2023-04-21T11:00:17;13.20;;;11.85;;
34491;SDS011;20737;49.908;8.126;2023-04-21T11:05:32;11.60;;;10.40;;
34491;SDS011;20737;49.908;8.126;2023-04-21T11:08:03;13.18;;;10.95;;
34491;SDS011;20737;49.908;8.126;2023-04-21T11:10:42;12.48;;;11.13;;
34491;SDS011;20737;49.908;8.126;2023-04-21T11:13:18;11.63;;;10.32;;
34491;SDS011;20737;49.908;8.126;2023-04-21T11:15:54;10.80;;;9.70;;
34491;SDS011;20737;49.908;8.126;2023-04-21T11:18:31;10.65;;;9.55;;
34491;SDS011;20737;49.908;8.126;2023-04-21T11:21:06;9.52;;;8.63;;
34491;SDS011;20737;49.908;8.126;2023-04-21T11:23:34;7.60;;;6.90;;
34491;SDS011;20737;49.908;8.126;2023-04-21T11:26:04;9.05;;;8.15;;
34491;SDS011;20737;49.908;8.126;2023-04-21T11:28:30;10.45;;;9.43;;
34491;SDS011;20737;49.908;8.126;2023-04-21T11:30:57;10.70;;;9.30;;
34491;SDS011;20737;49.908;8.126;2023-04-21T11:33:27;10.65;;;9.55;;
34491;SDS011;20737;49.908;8.126;2023-04-21T11:35:55;10.07;;;9.07;;
34491;SDS011;20737;49.908;8.126;2023-04-21T11:38:23;10.43;;;9.43;;
34491;SDS011;20737;49.908;8.126;2023-04-21T11:40:50;9.85;;;8.85;;
34491;SDS011;20737;49.908;8.126;2023-04-21T11:43:19;11.52;;;9.35;;
34491;SDS011;20737;49.908;8.126;2023-04-21T11:45:47;12.30;;;10.95;;
34491;SDS011;20737;49.908;8.126;2023-04-21T11:48:14;15.13;;;12.38;;
34491;SDS011;20737;49.908;8.126;2023-04-21T11:50:45;15.85;;;12.18;;
34491;SDS011;20737;49.908;8.126;2023-04-21T11:53:14;12.48;;;10.77;;
34491;SDS011;20737;49.908;8.126;2023-04-21T11:55:41;12.90;;;10.27;;
34491;SDS011;20737;49.908;8.126;2023-04-21T11:58:09;13.23;;;11.65;;
34491;SDS011;20737;49.908;8.126;2023-04-21T12:00:39;11.02;;;9.55;;
34491;SDS011;20737;49.908;8.126;2023-04-21T12:03:07;14.82;;;11.48;;
34491;SDS011;20737;49.908;8.126;2023-04-21T12:05:34;13.05;;;11.13;;
34491;SDS011;20737;49.908;8.126;2023-04-21T12:08:01;13.10;;;10.43;;
34491;SDS011;20737;49.908;8.126;2023-04-21T12:10:31;14.55;;;10.20;;
34491;SDS011;20737;49.908;8.126;2023-04-21T12:12:58;15.32;;;11.43;;
34491;SDS011;20737;49.908;8.126;2023-04-21T12:15:25;14.70;;;11.07;;
34491;SDS011;20737;49.908;8.126;2023-04-21T12:17:55;13.10;;;10.20;;
34491;SDS011;20737;49.908;8.126;2023-04-21T12:20:22;14.40;;;11.23;;
34491;SDS011;20737;49.908;8.126;2023-04-21T12:22:50;20.05;;;11.98;;
34491;SDS011;20737;49.908;8.126;2023-04-21T12:25:17;16.02;;;10.75;;
34491;SDS011;20737;49.908;8.126;2023-04-21T12:27:48;14.60;;;10.25;;
34491;SDS011;20737;49.908;8.126;2023-04-21T12:30:16;16.42;;;12.02;;
34491;SDS011;20737;49.908;8.126;2023-04-21T12:32:43;14.27;;;11.18;;
34491;SDS011;20737;49.908;8.126;2023-04-21T12:35:11;15.82;;;10.77;;
34491;SDS011;20737;49.908;8.126;2023-04-21T12:37:38;14.68;;;11.23;;
34491;SDS011;20737;49.908;8.126;2023-04-21T12:40:05;15.32;;;10.48;;
34491;SDS011;20737;49.908;8.126;2023-04-21T12:42:32;14.75;;;10.07;;
34491;SDS011;20737;49.908;8.126;2023-04-21T12:45:01;15.05;;;10.30;;
34491;SDS011;20737;49.908;8.126;2023-04-21T12:47:29;13.23;;;10.63;;
34491;SDS011;20737;49.908;8.126;2023-04-21T12:49:56;13.43;;;10.45;;
34491;SDS011;20737;49.908;8.126;2023-04-21T12:52:23;15.45;;;10.77;;
34491;SDS011;20737;49.908;8.126;2023-04-21T12:54:50;12.98;;;9.65;;
34491;SDS011;20737;49.908;8.126;2023-04-21T12:57:16;13.75;;;10.05;;
34491;SDS011;20737;49.908;8.126;2023-04-21T12:59:43;14.82;;;10.52;;
34491;SDS011;20737;49.908;8.126;2023-04-21T13:02:12;13.82;;;10.52;;
34491;SDS011;20737;49.908;8.126;2023-04-21T13:04:39;12.35;;;9.30;;
34491;SDS011;20737;49.908;8.126;2023-04-21T13:07:06;10.95;;;8.23;;
34491;SDS011;20737;49.908;8.126;2023-04-21T13:09:33;11.85;;;9.20;;
34491;SDS011;20737;49.908;8.126;2023-04-21T13:12:00;10.57;;;9.02;;
34491;SDS011;20737;49.908;8.126;2023-04-21T13:14:27;12.88;;;10.02;;
34491;SDS011;20737;49.908;8.126;2023-04-21T13:16:54;11.38;;;10.18;;
34491;SDS011;20737;49.908;8.126;2023-04-21T13:19:22;10.77;;;9.27;;
34491;SDS011;20737;49.908;8.126;2023-04-21T13:21:49;11.15;;;9.55;;
34491;SDS011;20737;49.908;8.126;2023-04-21T13:24:16;12.75;;;9.85;;
34491;SDS011;20737;49.908;8.126;2023-04-21T13:26:42;11.95;;;10.27;;
34491;SDS011;20737;49.908;8.126;2023-04-21T13:29:09;13.48;;;10.60;;
34491;SDS011;20737;49.908;8.126;2023-04-21T13:31:36;13.93;;;10.73;;
34491;SDS011;20737;49.908;8.126;2023-04-21T13:34:03;12.50;;;9.98;;
34491;SDS011;20737;49.908;8.126;2023-04-21T13:36:31;12.43;;;10.55;;
34491;SDS011;20737;49.908;8.126;2023-04-21T13:38:57;10.80;;;8.65;;
34491;SDS011;20737;49.908;8.126;2023-04-21T13:41:25;11.88;;;10.02;;
34491;SDS011;20737;49.908;8.126;2023-04-21T13:43:52;12.38;;;10.32;;
34491;SDS011;20737;49.908;8.126;2023-04-21T13:46:18;14.90;;;9.88;;
34491;SDS011;20737;49.908;8.126;2023-04-21T13:48:45;14.00;;;10.20;;
34491;SDS011;20737;49.908;8.126;2023-04-21T13:51:13;13.82;;;10.57;;
34491;SDS011;20737;49.908;8.126;2023-04-21T13:53:41;12.65;;;10.43;;
34491;SDS011;20737;49.908;8.126;2023-04-21T13:56:08;12.50;;;9.32;;
34491;SDS011;20737;49.908;8.126;2023-04-21T13:58:37;11.50;;;10.02;;
34491;SDS011;20737;49.908;8.126;2023-04-21T14:01:04;13.85;;;10.88;;
34491;SDS011;20737;49.908;8.126;2023-04-21T14:03:31;12.00;;;9.95;;
34491;SDS011;20737;49.908;8.126;2023-04-21T14:05:58;13.85;;;10.80;;
34491;SDS011;20737;49.908;8.126;2023-04-21T14:08:24;14.90;;;11.13;;
34491;SDS011;20737;49.908;8.126;2023-04-21T14:10:52;12.38;;;9.95;;
34491;SDS011;20737;49.908;8.126;2023-04-21T14:13:22;11.68;;;10.07;;
34491;SDS011;20737;49.908;8.126;2023-04-21T14:15:52;11.48;;;10.27;;
34491;SDS011;20737;49.908;8.126;2023-04-21T14:18:19;13.57;;;10.80;;
34491;SDS011;20737;49.908;8.126;2023-04-21T14:20:46;14.63;;;11.35;;
34491;SDS011;20737;49.908;8.126;2023-04-21T14:23:13;13.05;;;10.55;;
34491;SDS011;20737;49.908;8.126;2023-04-21T14:25:39;13.13;;;10.10;;
34491;SDS011;20737;49.908;8.126;2023-04-21T14:28:08;14.70;;;11.18;;
34491;SDS011;20737;49.908;8.126;2023-04-21T14:30:35;13.48;;;9.73;;
34491;SDS011;20737;49.908;8.126;2023-04-21T14:33:02;11.65;;;9.70;;
34491;SDS011;20737;49.908;8.126;2023-04-21T14:35:29;13.00;;;9.75;;
34491;SDS011;20737;49.908;8.126;2023-04-21T14:37:56;10.90;;;9.35;;